createdAt,value
2023-04-04T00:00:03.202Z,0.59
2023-04-04T00:01:06.586Z,0.60
2023-04-04T00:02:08.493Z,0.58
2023-04-04T00:03:10.597Z,0.54
2023-04-04T00:04:12.705Z,0.55
2023-04-04T00:05:14.690Z,0.52
2023-04-04T00:06:16.606Z,0.54
2023-04-04T00:07:18.571Z,0.50
2023-04-04T00:08:21.793Z,0.49
2023-04-04T00:09:23.816Z,0.49
2023-04-04T00:10:25.791Z,0.49
2023-04-04T00:11:27.816Z,0.45
2023-04-04T00:12:29.996Z,0.46
2023-04-04T00:13:32.124Z,0.45
2023-04-04T00:14:34.243Z,0.42
2023-04-04T00:15:36.661Z,0.41
2023-04-04T00:16:38.728Z,0.37
2023-04-04T00:17:40.754Z,0.37
2023-04-04T00:18:42.704Z,0.35
2023-04-04T00:19:44.657Z,0.34
2023-04-04T00:20:46.667Z,0.36
2023-04-04T00:21:50.225Z,0.34
2023-04-04T00:22:52.198Z,0.32
2023-04-04T00:23:54.529Z,0.32
2023-04-04T00:24:57.309Z,0.31
2023-04-04T00:25:59.259Z,0.28
2023-04-04T00:27:01.457Z,0.25
2023-04-04T00:28:03.711Z,0.24
2023-04-04T00:29:05.682Z,0.25
2023-04-04T00:30:08.215Z,0.25
2023-04-04T00:31:10.159Z,0.25
2023-04-04T00:32:12.673Z,0.23
2023-04-04T00:33:15.183Z,0.22
2023-04-04T00:34:17.149Z,0.19
2023-04-04T00:35:19.118Z,0.18
2023-04-04T00:36:21.227Z,0.18
2023-04-04T00:37:23.303Z,0.16
2023-04-04T00:38:25.230Z,0.15
2023-04-04T00:39:27.165Z,0.13
2023-04-04T00:40:29.120Z,0.15
2023-04-04T00:41:31.201Z,0.17
2023-04-04T00:42:33.954Z,0.16
2023-04-04T00:43:36.328Z,0.10
2023-04-04T00:44:38.410Z,0.09
2023-04-04T00:45:41.274Z,0.11
2023-04-04T00:46:43.340Z,0.09
2023-04-04T00:47:46.688Z,0.04
2023-04-04T00:48:49.510Z,0.04
2023-04-04T00:49:52.374Z,0.08
2023-04-04T00:50:54.377Z,0.02
2023-04-04T00:51:57.604Z,0.00
2023-04-04T00:52:59.874Z,-0.02
2023-04-04T00:54:02.229Z,-0.01
2023-04-04T00:55:04.487Z,0.00
2023-04-04T00:56:08.820Z,-0.03
2023-04-04T00:57:11.049Z,-0.02
2023-04-04T00:58:13.133Z,-0.05
2023-04-04T00:59:16.135Z,-0.03
2023-04-04T01:00:18.452Z,-0.06
2023-04-04T01:01:20.916Z,-0.09
2023-04-04T01:02:24.262Z,-0.09
2023-04-04T01:03:26.240Z,-0.10
2023-04-04T01:04:29.373Z,-0.12
2023-04-04T01:05:31.765Z,-0.13
2023-04-04T01:06:33.693Z,-0.16
2023-04-04T01:07:37.226Z,-0.15
2023-04-04T01:08:39.514Z,-0.14
2023-04-04T01:09:41.993Z,-0.17
2023-04-04T01:10:44.020Z,-0.20
2023-04-04T01:11:46.259Z,-0.15
2023-04-04T01:12:49.078Z,-0.17
2023-04-04T01:13:52.701Z,-0.18
2023-04-04T01:14:54.755Z,-0.19
2023-04-04T01:15:56.782Z,-0.19
2023-04-04T01:17:00.063Z,-0.21
2023-04-04T01:18:05.937Z,-0.18
2023-04-04T01:19:11.479Z,-0.21
2023-04-04T01:20:20.567Z,-0.27
2023-04-04T01:21:27.142Z,-0.29
2023-04-04T01:22:30.358Z,-0.31
2023-04-04T01:23:41.724Z,-0.34
2023-04-04T01:24:45.841Z,-0.31
2023-04-04T01:25:48.302Z,-0.32
2023-04-04T01:26:50.830Z,-0.32
2023-04-04T01:27:53.145Z,-0.35
2023-04-04T01:28:55.522Z,-0.33
2023-04-04T01:29:57.590Z,-0.35
2023-04-04T01:31:01.625Z,-0.39
2023-04-04T01:32:16.373Z,-0.41
2023-04-04T01:33:25.520Z,-0.41
2023-04-04T01:34:46.132Z,-0.41
2023-04-04T01:36:07.618Z,-0.38
2023-04-04T01:37:30.714Z,-0.42
2023-04-04T01:38:38.664Z,-0.45
2023-04-04T01:40:05.144Z,-0.48
2023-04-04T01:41:09.445Z,-0.44
2023-04-04T01:42:16.959Z,-0.47
2023-04-04T01:43:21.471Z,-0.48
2023-04-04T01:44:24.287Z,-0.45
2023-04-04T01:45:26.517Z,-0.47
2023-04-04T01:46:29.278Z,-0.49
2023-04-04T01:47:37.617Z,-0.51
2023-04-04T01:48:39.660Z,-0.52
2023-04-04T01:49:43.344Z,-0.53
2023-04-04T01:50:45.294Z,-0.51
2023-04-04T01:51:47.306Z,-0.53
2023-04-04T01:52:49.938Z,-0.54
2023-04-04T01:53:51.973Z,-0.54
2023-04-04T01:54:53.855Z,-0.53
2023-04-04T01:55:55.938Z,-0.56
2023-04-04T01:56:58.325Z,-0.58
2023-04-04T01:58:00.436Z,-0.58
2023-04-04T01:59:02.881Z,-0.60
2023-04-04T02:02:10.728Z,-0.76
2023-04-04T02:03:13.116Z,-0.78
2023-04-04T02:04:15.399Z,-0.74
2023-04-04T02:05:17.775Z,-0.72
2023-04-04T02:06:20.022Z,-0.67
2023-04-04T02:07:23.078Z,-0.71
2023-04-04T02:08:25.539Z,-0.75
2023-04-04T02:09:31.409Z,-0.74
2023-04-04T02:10:33.562Z,-0.72
2023-04-04T02:11:36.527Z,-0.75
2023-04-04T02:12:39.877Z,-0.75
2023-04-04T02:13:44.270Z,-0.74
2023-04-04T02:14:49.319Z,-0.72
2023-04-04T02:15:52.338Z,-0.74
2023-04-04T02:16:54.686Z,-0.77
2023-04-04T02:17:58.833Z,-0.76
2023-04-04T02:19:02.184Z,-0.76
2023-04-04T02:20:05.249Z,-0.73
2023-04-04T02:21:07.738Z,-0.75
2023-04-04T02:22:09.982Z,-0.74
2023-04-04T02:23:12.190Z,-0.79
2023-04-04T02:24:14.369Z,-0.77
2023-04-04T02:25:17.079Z,-0.74
2023-04-04T02:26:19.304Z,-0.74
2023-04-04T02:27:21.542Z,-0.77
2023-04-04T02:28:23.759Z,-0.80
2023-04-04T02:29:25.927Z,-0.83
2023-04-04T02:30:28.218Z,-0.80
2023-04-04T02:31:30.672Z,-0.81
2023-04-04T02:32:33.066Z,-0.84
2023-04-04T02:33:35.574Z,-0.84
2023-04-04T02:34:40.243Z,-0.83
2023-04-04T02:35:42.959Z,-0.88
2023-04-04T02:36:45.323Z,-0.89
2023-04-04T02:37:48.458Z,-0.93
2023-04-04T02:39:05.805Z,-0.92
2023-04-04T02:40:08.679Z,-0.90
2023-04-04T02:41:13.463Z,-0.86
2023-04-04T02:42:15.651Z,-0.87
2023-04-04T02:43:17.932Z,-0.89
2023-04-04T02:44:22.460Z,-0.88
2023-04-04T02:45:26.589Z,-0.90
2023-04-04T02:46:36.933Z,-0.93
2023-04-04T02:47:42.835Z,-0.90
2023-04-04T02:48:46.568Z,-0.93
2023-04-04T02:49:49.315Z,-0.95
2023-04-04T02:50:51.757Z,-0.96
2023-04-04T02:51:54.838Z,-0.99
2023-04-04T02:53:01.454Z,-0.97
2023-04-04T02:54:06.260Z,-1.00
2023-04-04T02:55:14.784Z,-1.01
2023-04-04T02:56:18.293Z,-0.99
2023-04-04T02:57:21.285Z,-1.07
2023-04-04T02:58:23.388Z,-1.03
2023-04-04T02:59:25.990Z,-1.04
2023-04-04T03:00:28.329Z,-1.06
2023-04-04T03:01:30.984Z,-1.07
2023-04-04T03:02:36.976Z,-1.07
2023-04-04T03:03:39.568Z,-1.10
2023-04-04T03:04:42.012Z,-1.08
2023-04-04T03:05:44.275Z,-1.11
2023-04-04T03:06:48.210Z,-1.11
2023-04-04T03:07:56.256Z,-1.14
2023-04-04T03:08:58.544Z,-1.19
2023-04-04T03:10:01.436Z,-1.17
2023-04-04T03:11:03.714Z,-1.22
2023-04-04T03:12:06.906Z,-1.18
2023-04-04T03:13:09.204Z,-1.14
2023-04-04T03:14:12.062Z,-1.15
2023-04-04T03:15:15.692Z,-1.16
2023-04-04T03:16:19.727Z,-1.12
2023-04-04T03:17:26.067Z,-1.13
2023-04-04T03:18:29.106Z,-1.18
2023-04-04T03:19:31.876Z,-1.14
2023-04-04T03:20:34.358Z,-1.17
2023-04-04T03:21:36.924Z,-1.16
2023-04-04T03:22:39.122Z,-1.18
2023-04-04T03:23:42.701Z,-1.20
2023-04-04T03:24:44.980Z,-1.21
2023-04-04T03:25:48.511Z,-1.19
2023-04-04T03:26:50.791Z,-1.18
2023-04-04T03:27:53.430Z,-1.15
2023-04-04T03:28:58.561Z,-1.19
2023-04-04T03:30:02.259Z,-1.25
2023-04-04T03:31:07.749Z,-1.24
2023-04-04T03:32:14.173Z,-1.23
2023-04-04T03:33:16.746Z,-1.20
2023-04-04T03:34:19.599Z,-1.22
2023-04-04T03:35:21.850Z,-1.24
2023-04-04T03:36:24.086Z,-1.23
2023-04-04T03:37:26.517Z,-1.20
2023-04-04T03:38:28.807Z,-1.19
2023-04-04T03:39:31.032Z,-1.19
2023-04-04T03:40:33.251Z,-1.27
2023-04-04T03:41:35.865Z,-1.33
2023-04-04T03:42:38.141Z,-1.31
2023-04-04T03:43:45.100Z,-1.32
2023-04-04T03:44:47.275Z,-1.32
2023-04-04T03:46:04.932Z,-1.30
2023-04-04T03:47:07.411Z,-1.32
2023-04-04T03:48:11.153Z,-1.26
2023-04-04T03:49:14.564Z,-1.25
2023-04-04T03:50:16.804Z,-1.28
2023-04-04T03:51:27.217Z,-1.25
2023-04-04T03:52:29.366Z,-1.29
2023-04-04T03:53:32.073Z,-1.31
2023-04-04T03:54:34.607Z,-1.30
2023-04-04T03:55:40.121Z,-1.34
2023-04-04T03:56:42.954Z,-1.34
2023-04-04T03:57:45.483Z,-1.38
2023-04-04T03:58:50.349Z,-1.41
2023-04-04T03:59:55.955Z,-1.44
2023-04-04T04:00:58.748Z,-1.46
2023-04-04T04:02:04.771Z,-1.46
2023-04-04T04:03:07.072Z,-1.47
2023-04-04T04:04:09.496Z,-1.49
2023-04-04T04:05:11.841Z,-1.49
2023-04-04T04:06:14.050Z,-1.50
2023-04-04T04:07:16.297Z,-1.49
2023-04-04T04:08:18.570Z,-1.46
2023-04-04T04:09:21.264Z,-1.45
2023-04-04T04:10:23.415Z,-1.48
2023-04-04T04:11:25.755Z,-1.48
2023-04-04T04:12:28.430Z,-1.53
2023-04-04T04:13:30.640Z,-1.54
2023-04-04T04:14:32.905Z,-1.52
2023-04-04T04:15:37.423Z,-1.52
2023-04-04T04:16:43.070Z,-1.60
2023-04-04T04:17:48.317Z,-1.56
2023-04-04T04:18:51.044Z,-1.56
2023-04-04T04:20:01.377Z,-1.52
2023-04-04T04:21:11.818Z,-1.56
2023-04-04T04:22:16.913Z,-1.57
2023-04-04T04:23:19.805Z,-1.57
2023-04-04T04:24:25.635Z,-1.58
2023-04-04T04:25:27.929Z,-1.56
2023-04-04T04:26:37.624Z,-1.58
2023-04-04T04:27:40.970Z,-1.57
2023-04-04T04:28:45.127Z,-1.59
2023-04-04T04:29:51.426Z,-1.57
2023-04-04T04:30:53.873Z,-1.49
2023-04-04T04:31:58.854Z,-1.49
2023-04-04T04:33:05.224Z,-1.52
2023-04-04T04:34:14.636Z,-1.52
2023-04-04T04:35:17.724Z,-1.56
2023-04-04T04:36:21.293Z,-1.58
2023-04-04T04:37:30.490Z,-1.58
2023-04-04T04:38:33.971Z,-1.58
2023-04-04T04:39:37.954Z,-1.63
2023-04-04T04:41:03.396Z,-1.62
2023-04-04T04:42:14.587Z,-1.60
2023-04-04T04:43:24.052Z,-1.61
2023-04-04T04:44:26.983Z,-1.63
2023-04-04T04:45:31.385Z,-1.67
2023-04-04T04:46:42.129Z,-1.62
2023-04-04T04:47:51.065Z,-1.63
2023-04-04T04:48:54.308Z,-1.61
2023-04-04T04:50:01.638Z,-1.63
2023-04-04T04:51:12.025Z,-1.59
2023-04-04T04:52:19.503Z,-1.54
2023-04-04T04:53:22.158Z,-1.59
2023-04-04T04:54:24.429Z,-1.60
2023-04-04T04:55:30.078Z,-1.60
2023-04-04T04:56:40.920Z,-1.62
2023-04-04T04:57:48.065Z,-1.66
2023-04-04T04:58:55.557Z,-1.65
2023-04-04T05:00:01.324Z,-1.65
2023-04-04T05:01:04.226Z,-1.63
2023-04-04T05:02:13.313Z,-1.61
2023-04-04T05:03:19.234Z,-1.62
2023-04-04T05:04:25.324Z,-1.59
2023-04-04T05:05:36.501Z,-1.54
2023-04-04T05:06:43.128Z,-1.50
2023-04-04T05:07:47.634Z,-1.46
2023-04-04T05:08:50.041Z,-1.48
2023-04-04T05:10:02.104Z,-1.50
2023-04-04T05:11:05.670Z,-1.46
2023-04-04T05:12:09.241Z,-1.50
2023-04-04T05:13:16.231Z,-1.53
2023-04-04T05:14:21.370Z,-1.52
2023-04-04T05:15:29.387Z,-1.53
2023-04-04T05:16:31.717Z,-1.51
2023-04-04T05:17:38.072Z,-1.38
2023-04-04T05:18:43.114Z,-1.37
2023-04-04T05:19:46.981Z,-1.32
2023-04-04T05:20:54.755Z,-1.34
2023-04-04T05:21:59.574Z,-1.41
2023-04-04T05:23:22.947Z,-1.38
2023-04-04T05:24:25.540Z,-1.38
2023-04-04T05:25:27.904Z,-1.29
2023-04-04T05:26:30.220Z,-1.16
2023-04-04T05:27:33.242Z,-1.09
2023-04-04T05:28:37.665Z,-0.19
2023-04-04T05:29:41.868Z,1.61
2023-04-04T05:30:44.686Z,2.62
2023-04-04T05:31:51.939Z,3.86
2023-04-04T05:32:56.554Z,4.39
2023-04-04T05:34:08.361Z,4.79
2023-04-04T05:35:11.459Z,5.10
2023-04-04T05:36:14.503Z,4.93
2023-04-04T05:37:22.189Z,4.98
2023-04-04T05:38:25.787Z,5.06
2023-04-04T05:39:29.074Z,5.46
2023-04-04T05:40:45.327Z,5.11
2023-04-04T05:41:49.462Z,5.48
2023-04-04T05:42:58.550Z,6.01
2023-04-04T05:44:07.282Z,6.26
2023-04-04T05:45:10.419Z,6.19
2023-04-04T05:46:12.848Z,6.04
2023-04-04T05:47:23.613Z,7.15
2023-04-04T05:48:26.135Z,7.28
2023-04-04T05:49:29.499Z,6.40
2023-04-04T05:50:36.656Z,8.21
2023-04-04T05:51:40.687Z,7.76
2023-04-04T05:52:47.097Z,7.50
2023-04-04T05:53:52.552Z,7.35
2023-04-04T05:55:00.131Z,7.56
2023-04-04T05:56:05.237Z,6.76
2023-04-04T05:57:09.888Z,6.43
2023-04-04T05:58:19.114Z,7.44
2023-04-04T05:59:30.237Z,7.07
2023-04-04T06:00:37.261Z,8.50
2023-04-04T06:01:43.133Z,7.70
2023-04-04T06:02:49.276Z,8.07
2023-04-04T06:03:56.104Z,9.78
2023-04-04T06:05:01.418Z,8.81
2023-04-04T06:06:10.211Z,9.74
2023-04-04T06:07:12.528Z,10.10
2023-04-04T06:08:14.755Z,10.08
2023-04-04T06:09:16.967Z,8.77
2023-04-04T06:10:19.546Z,10.21
2023-04-04T06:11:24.795Z,9.15
2023-04-04T06:12:32.839Z,9.84
2023-04-04T06:13:35.339Z,8.99
2023-04-04T06:14:42.155Z,8.84
2023-04-04T06:15:45.709Z,10.37
2023-04-04T06:16:48.115Z,10.41
2023-04-04T06:17:51.226Z,9.71
2023-04-04T06:18:53.623Z,9.50
2023-04-04T06:19:56.460Z,8.89
2023-04-04T06:20:58.773Z,8.36
2023-04-04T06:22:01.517Z,9.15
2023-04-04T06:23:05.545Z,8.65
2023-04-04T06:24:10.135Z,9.11
2023-04-04T06:25:14.668Z,9.13
2023-04-04T06:26:17.411Z,8.35
2023-04-04T06:27:21.004Z,6.25
2023-04-04T06:28:23.352Z,4.46
2023-04-04T06:29:26.338Z,3.04
2023-04-04T06:30:31.005Z,2.53
2023-04-04T06:31:34.380Z,2.12
2023-04-04T06:32:47.008Z,1.41
2023-04-04T06:33:53.950Z,1.33
2023-04-04T06:34:58.670Z,1.08
2023-04-04T06:36:14.825Z,1.11
2023-04-04T06:37:17.072Z,1.24
2023-04-04T06:38:29.733Z,1.12
2023-04-04T06:39:34.848Z,1.25
2023-04-04T06:40:41.651Z,1.11
2023-04-04T06:41:44.115Z,0.85
2023-04-04T06:42:52.162Z,1.14
2023-04-04T06:43:56.243Z,1.17
2023-04-04T06:44:59.198Z,1.33
2023-04-04T06:46:01.450Z,1.49
2023-04-04T06:47:03.883Z,1.37
2023-04-04T06:48:06.271Z,1.55
2023-04-04T06:49:09.072Z,1.25
2023-04-04T06:50:11.799Z,1.47
2023-04-04T06:51:14.022Z,1.26
2023-04-04T06:52:20.417Z,1.19
2023-04-04T06:53:23.756Z,1.25
2023-04-04T06:54:26.481Z,1.16
2023-04-04T06:55:29.173Z,1.39
2023-04-04T06:56:31.397Z,1.36
2023-04-04T06:57:33.549Z,1.15
2023-04-04T06:58:35.714Z,1.18
2023-04-04T06:59:38.353Z,1.20
2023-04-04T07:00:41.356Z,1.25
2023-04-04T07:01:43.871Z,1.37
2023-04-04T07:02:47.191Z,1.21
2023-04-04T07:03:53.056Z,1.37
2023-04-04T07:04:55.366Z,1.47
2023-04-04T07:05:57.574Z,1.55
2023-04-04T07:06:59.695Z,1.63
2023-04-04T07:08:01.970Z,1.58
2023-04-04T07:09:12.843Z,1.44
2023-04-04T07:10:21.852Z,1.36
2023-04-04T07:11:24.163Z,1.44
2023-04-04T07:12:26.321Z,1.59
2023-04-04T07:13:28.472Z,1.82
2023-04-04T07:14:30.644Z,1.90
2023-04-04T07:15:32.855Z,1.98
2023-04-04T07:16:36.467Z,2.02
2023-04-04T07:17:41.667Z,2.07
2023-04-04T07:18:44.327Z,2.14
2023-04-04T07:19:46.539Z,2.23
2023-04-04T07:20:48.739Z,2.12
2023-04-04T07:21:51.061Z,1.87
2023-04-04T07:22:53.273Z,1.67
2023-04-04T07:23:55.449Z,1.73
2023-04-04T07:24:57.758Z,1.78
2023-04-04T07:25:59.897Z,2.04
2023-04-04T07:27:02.227Z,1.93
2023-04-04T07:28:12.295Z,1.99
2023-04-04T07:29:15.323Z,2.00
2023-04-04T07:30:17.520Z,2.44
2023-04-04T07:31:19.757Z,2.31
2023-04-04T07:32:24.369Z,2.34
2023-04-04T07:33:27.310Z,2.21
2023-04-04T07:34:29.818Z,2.24
2023-04-04T07:35:32.113Z,2.54
2023-04-04T07:36:34.372Z,2.42
2023-04-04T07:37:38.006Z,2.39
2023-04-04T07:38:40.177Z,2.12
2023-04-04T07:39:42.342Z,2.17
2023-04-04T07:40:44.619Z,2.19
2023-04-04T07:41:47.245Z,2.56
2023-04-04T07:42:51.092Z,2.88
2023-04-04T07:43:53.247Z,2.56
2023-04-04T07:44:55.520Z,2.55
2023-04-04T07:45:57.687Z,3.00
2023-04-04T07:47:09.407Z,3.01
2023-04-04T07:48:13.861Z,3.09
2023-04-04T07:49:16.055Z,3.20
2023-04-04T07:50:18.634Z,3.11
2023-04-04T07:51:28.128Z,3.17
2023-04-04T07:52:30.525Z,3.08
2023-04-04T07:53:32.949Z,2.93
2023-04-04T07:54:35.575Z,2.80
2023-04-04T07:55:37.852Z,3.63
2023-04-04T07:56:40.614Z,3.47
2023-04-04T07:57:43.608Z,3.27
2023-04-04T07:58:45.782Z,3.25
2023-04-04T07:59:47.995Z,3.15
2023-04-04T08:00:50.134Z,3.07
2023-04-04T08:01:52.477Z,3.24
2023-04-04T08:03:01.473Z,3.34
2023-04-04T08:04:05.476Z,3.16
2023-04-04T08:05:08.462Z,3.59
2023-04-04T08:06:11.388Z,3.59
2023-04-04T08:07:16.961Z,4.15
2023-04-04T08:08:19.091Z,3.57
2023-04-04T08:09:21.307Z,3.36
2023-04-04T08:10:23.513Z,3.76
2023-04-04T08:11:25.927Z,3.59
2023-04-04T08:12:28.566Z,3.46
2023-04-04T08:13:31.445Z,3.57
2023-04-04T08:14:33.955Z,3.78
2023-04-04T08:15:36.228Z,3.69
2023-04-04T08:16:39.306Z,3.82
2023-04-04T08:17:43.387Z,3.91
2023-04-04T08:18:45.701Z,4.00
2023-04-04T08:19:48.140Z,4.31
2023-04-04T08:20:50.315Z,4.51
2023-04-04T08:21:52.536Z,4.76
2023-04-04T08:22:54.692Z,4.84
2023-04-04T08:23:56.895Z,4.16
2023-04-04T08:24:59.054Z,4.47
2023-04-04T08:26:01.208Z,4.75
2023-04-04T08:27:05.563Z,4.41
2023-04-04T08:28:08.242Z,5.09
2023-04-04T08:29:10.517Z,4.70
2023-04-04T08:30:14.318Z,4.45
2023-04-04T08:31:16.822Z,4.30
2023-04-04T08:32:19.002Z,4.13
2023-04-04T08:33:25.496Z,4.69
2023-04-04T08:34:32.652Z,4.93
2023-04-04T08:35:34.885Z,4.77
2023-04-04T08:36:37.034Z,4.47
2023-04-04T08:37:39.739Z,4.61
2023-04-04T08:38:41.916Z,4.93
2023-04-04T08:39:44.213Z,4.98
2023-04-04T08:40:49.816Z,4.47
2023-04-04T08:42:01.768Z,4.55
2023-04-04T08:43:05.724Z,4.54
2023-04-04T08:44:11.617Z,4.89
2023-04-04T08:45:17.438Z,4.72
2023-04-04T08:46:21.836Z,4.63
2023-04-04T08:47:25.440Z,5.16
2023-04-04T08:48:30.298Z,5.09
2023-04-04T08:49:37.277Z,4.65
2023-04-04T08:50:42.397Z,4.62
2023-04-04T08:51:46.431Z,5.01
2023-04-04T08:52:49.918Z,4.80
2023-04-04T08:53:54.048Z,4.84
2023-04-04T08:54:57.684Z,5.24
2023-04-04T08:56:00.209Z,5.42
2023-04-04T08:57:04.014Z,5.82
2023-04-04T08:58:06.176Z,5.52
2023-04-04T08:59:11.379Z,6.23
2023-04-04T09:00:14.694Z,5.47
2023-04-04T09:01:17.320Z,5.79
2023-04-04T09:02:43.140Z,5.43
2023-04-04T09:03:46.471Z,5.59
2023-04-04T09:05:02.462Z,5.35
2023-04-04T09:06:08.296Z,5.42
2023-04-04T09:07:12.991Z,5.23
2023-04-04T09:08:18.116Z,5.33
2023-04-04T09:09:21.900Z,6.10
2023-04-04T09:10:24.153Z,5.43
2023-04-04T09:11:27.733Z,5.44
2023-04-04T09:12:32.421Z,5.08
2023-04-04T09:13:37.267Z,5.62
2023-04-04T09:14:43.283Z,5.99
2023-04-04T09:15:57.378Z,5.95
2023-04-04T09:16:59.716Z,6.20
2023-04-04T09:18:02.609Z,6.56
2023-04-04T09:19:05.684Z,6.21
2023-04-04T09:20:33.867Z,6.42
2023-04-04T09:21:37.574Z,6.40
2023-04-04T09:22:45.175Z,6.84
2023-04-04T09:23:47.605Z,6.62
2023-04-04T09:24:51.649Z,6.71
2023-04-04T09:27:01.408Z,7.13
2023-04-04T09:28:05.827Z,7.60
2023-04-04T09:29:08.717Z,7.03
2023-04-04T09:30:11.091Z,7.51
2023-04-04T09:31:13.493Z,7.76
2023-04-04T09:32:18.401Z,6.75
2023-04-04T09:33:23.821Z,6.22
2023-04-04T09:34:28.455Z,6.56
2023-04-04T09:35:34.320Z,6.74
2023-04-04T09:36:37.211Z,5.85
2023-04-04T09:37:41.515Z,6.26
2023-04-04T09:38:46.471Z,6.18
2023-04-04T09:39:50.271Z,5.89
2023-04-04T09:40:55.278Z,6.15
2023-04-04T09:41:58.919Z,6.62
2023-04-04T09:43:02.733Z,7.13
2023-04-04T09:44:05.846Z,7.00
2023-04-04T09:45:10.543Z,6.13
2023-04-04T09:46:15.701Z,6.01
2023-04-04T09:48:33.267Z,6.57
2023-04-04T09:49:35.907Z,7.10
2023-04-04T09:50:46.292Z,6.98
2023-04-04T09:51:52.799Z,6.28
2023-04-04T09:52:59.148Z,6.23
2023-04-04T09:54:02.516Z,6.25
2023-04-04T09:55:06.585Z,6.87
2023-04-04T09:56:09.100Z,6.49
2023-04-04T09:57:11.496Z,6.84
2023-04-04T09:58:18.283Z,6.46
2023-04-04T09:59:20.621Z,6.18
2023-04-04T10:00:23.163Z,5.97
2023-04-04T10:01:26.610Z,6.21
2023-04-04T10:02:32.942Z,5.92
2023-04-04T10:03:39.240Z,5.93
2023-04-04T10:04:43.690Z,6.06
2023-04-04T10:05:47.971Z,6.70
2023-04-04T10:06:50.434Z,7.35
2023-04-04T10:07:52.728Z,7.49
2023-04-04T10:08:56.609Z,6.95
2023-04-04T10:10:02.495Z,7.01
2023-04-04T10:11:11.938Z,6.69
2023-04-04T10:12:14.966Z,6.64
2023-04-04T10:13:28.236Z,6.79
2023-04-04T10:14:36.859Z,6.96
2023-04-04T10:15:44.223Z,7.76
2023-04-04T10:16:56.524Z,7.54
2023-04-04T10:18:00.349Z,7.29
2023-04-04T10:19:04.372Z,6.71
2023-04-04T10:20:11.763Z,7.20
2023-04-04T10:21:16.132Z,6.69
2023-04-04T10:22:20.734Z,6.92
2023-04-04T10:23:25.083Z,7.51
2023-04-04T10:24:27.420Z,7.87
2023-04-04T10:25:31.124Z,6.95
2023-04-04T10:26:33.331Z,6.88
2023-04-04T10:27:37.944Z,6.75
2023-04-04T10:28:40.822Z,7.10
2023-04-04T10:29:43.126Z,7.46
2023-04-04T10:31:05.133Z,7.57
2023-04-04T10:32:10.989Z,7.09
2023-04-04T10:33:27.096Z,6.93
2023-04-04T10:34:39.779Z,7.14
2023-04-04T10:35:45.662Z,7.76
2023-04-04T10:36:52.456Z,8.08
2023-04-04T10:37:59.635Z,7.21
2023-04-04T10:39:13.273Z,6.69
2023-04-04T10:40:17.303Z,7.38
2023-04-04T10:41:19.953Z,7.29
2023-04-04T10:42:23.435Z,7.28
2023-04-04T10:43:30.131Z,7.34
2023-04-04T10:44:34.154Z,7.01
2023-04-04T10:45:40.019Z,7.09
2023-04-04T10:46:46.730Z,7.52
2023-04-04T10:47:49.473Z,6.93
2023-04-04T10:48:51.919Z,7.26
2023-04-04T10:49:54.669Z,7.47
2023-04-04T10:50:58.279Z,7.68
2023-04-04T10:52:01.451Z,7.79
2023-04-04T10:53:04.586Z,8.17
2023-04-04T10:54:07.579Z,8.70
2023-04-04T10:55:13.259Z,8.26
2023-04-04T10:56:17.476Z,7.79
2023-04-04T10:57:20.337Z,7.75
2023-04-04T10:58:22.748Z,7.73
2023-04-04T10:59:25.525Z,7.32
2023-04-04T11:00:27.818Z,7.02
2023-04-04T11:01:49.818Z,6.97
2023-04-04T11:03:02.465Z,7.26
2023-04-04T11:04:21.988Z,7.27
2023-04-04T11:05:40.906Z,7.74
2023-04-04T11:07:08.150Z,8.18
2023-04-04T11:08:13.860Z,7.72
2023-04-04T11:09:55.407Z,6.90
2023-04-04T11:10:57.953Z,7.90
2023-04-04T11:12:14.871Z,7.60
2023-04-04T11:13:35.564Z,6.98
2023-04-04T11:14:38.964Z,6.91
2023-04-04T11:15:58.012Z,7.22
2023-04-04T11:17:00.388Z,6.97
2023-04-04T11:18:14.342Z,7.08
2023-04-04T11:19:30.198Z,7.46
2023-04-04T11:20:36.628Z,7.65
2023-04-04T11:21:39.135Z,7.69
2023-04-04T11:22:42.732Z,8.24
2023-04-04T11:23:48.018Z,7.82
2023-04-04T11:25:00.069Z,7.70
2023-04-04T11:26:03.423Z,8.46
2023-04-04T11:27:07.629Z,8.84
2023-04-04T11:28:18.608Z,8.39
2023-04-04T11:29:42.214Z,8.49
2023-04-04T11:30:48.415Z,7.76
2023-04-04T11:31:51.361Z,7.30
2023-04-04T11:33:06.605Z,7.47
2023-04-04T11:34:14.723Z,7.30
2023-04-04T11:35:17.167Z,6.92
2023-04-04T11:36:37.730Z,6.98
2023-04-04T11:37:54.589Z,7.29
2023-04-04T11:38:58.640Z,7.93
2023-04-04T11:40:12.068Z,8.71
2023-04-04T11:41:14.980Z,8.94
2023-04-04T11:42:20.466Z,7.95
2023-04-04T11:43:23.649Z,7.54
2023-04-04T11:44:30.705Z,7.90
2023-04-04T11:45:35.920Z,8.42
2023-04-04T11:46:38.188Z,8.90
2023-04-04T11:47:47.155Z,8.07
2023-04-04T11:48:49.549Z,7.56
2023-04-04T11:49:53.891Z,7.32
2023-04-04T11:50:56.513Z,7.06
2023-04-04T11:51:58.804Z,6.90
2023-04-04T11:53:01.012Z,6.87
2023-04-04T11:54:03.466Z,6.94
2023-04-04T11:55:19.957Z,7.67
2023-04-04T11:56:22.633Z,7.82
2023-04-04T11:57:24.858Z,7.53
2023-04-04T11:58:27.499Z,7.42
2023-04-04T11:59:30.599Z,7.16
2023-04-04T12:00:37.665Z,7.53
2023-04-04T12:01:40.586Z,7.75
2023-04-04T12:02:43.567Z,7.36
2023-04-04T12:03:46.572Z,7.25
2023-04-04T12:04:51.538Z,7.42
2023-04-04T12:05:54.359Z,7.24
2023-04-04T12:06:56.826Z,7.21
2023-04-04T12:08:01.777Z,7.30
2023-04-04T12:09:05.488Z,7.15
2023-04-04T12:10:09.015Z,7.73
2023-04-04T12:11:15.553Z,8.28
2023-04-04T12:12:17.806Z,7.63
2023-04-04T12:13:20.109Z,7.97
2023-04-04T12:14:24.187Z,8.01
2023-04-04T12:15:29.914Z,7.91
2023-04-04T12:16:32.757Z,8.27
2023-04-04T12:17:43.990Z,7.90
2023-04-04T12:18:46.395Z,8.37
2023-04-04T12:19:48.582Z,8.31
2023-04-04T12:20:51.383Z,7.86
2023-04-04T12:21:53.996Z,7.76
2023-04-04T12:22:56.188Z,7.31
2023-04-04T12:23:58.522Z,7.74
2023-04-04T12:25:00.684Z,7.96
2023-04-04T12:26:05.586Z,8.27
2023-04-04T12:27:07.913Z,7.96
2023-04-04T12:28:11.211Z,7.70
2023-04-04T12:29:15.199Z,7.84
2023-04-04T12:30:18.144Z,8.19
2023-04-04T12:31:20.660Z,7.54
2023-04-04T12:32:23.927Z,7.31
2023-04-04T12:33:26.413Z,7.16
2023-04-04T12:35:38.002Z,8.05
2023-04-04T12:36:41.262Z,7.88
2023-04-04T12:38:10.650Z,8.11
2023-04-04T12:39:13.922Z,7.85
2023-04-04T12:40:16.192Z,8.54
2023-04-04T12:41:19.489Z,8.35
2023-04-04T12:42:23.505Z,8.68
2023-04-04T12:43:27.930Z,8.82
2023-04-04T12:44:34.455Z,8.00
2023-04-04T12:45:38.253Z,7.87
2023-04-04T12:46:42.274Z,7.81
2023-04-04T12:47:55.247Z,7.53
2023-04-04T12:48:57.500Z,7.20
2023-04-04T12:50:00.038Z,7.50
2023-04-04T12:51:02.517Z,7.45
2023-04-04T12:52:07.377Z,7.32
2023-04-04T12:53:27.349Z,7.45
2023-04-04T12:54:37.637Z,7.94
2023-04-04T12:55:46.127Z,8.12
2023-04-04T12:56:48.327Z,8.52
2023-04-04T12:57:51.112Z,8.18
2023-04-04T12:58:53.634Z,8.22
2023-04-04T12:59:56.245Z,8.37
2023-04-04T13:01:00.820Z,8.23
2023-04-04T13:02:11.731Z,8.06
2023-04-04T13:03:15.746Z,8.18
2023-04-04T13:04:18.258Z,8.54
2023-04-04T13:05:23.235Z,8.35
2023-04-04T13:06:29.920Z,8.81
2023-04-04T13:07:39.021Z,8.65
2023-04-04T13:08:54.417Z,8.40
2023-04-04T13:10:04.733Z,8.71
2023-04-04T13:11:07.762Z,8.90
2023-04-04T13:12:12.260Z,8.28
2023-04-04T13:13:37.473Z,8.15
2023-04-04T13:14:58.688Z,7.82
2023-04-04T13:16:01.775Z,7.69
2023-04-04T13:17:06.290Z,7.65
2023-04-04T13:18:17.012Z,8.06
2023-04-04T13:19:19.549Z,8.35
2023-04-04T13:20:22.243Z,8.87
2023-04-04T13:21:26.008Z,8.23
2023-04-04T13:22:35.528Z,8.49
2023-04-04T13:23:40.370Z,8.81
2023-04-04T13:24:42.652Z,8.74
2023-04-04T13:25:44.922Z,8.61
2023-04-04T13:26:47.491Z,8.72
2023-04-04T13:27:49.745Z,8.15
2023-04-04T13:28:51.959Z,7.86
2023-04-04T13:29:54.180Z,7.84
2023-04-04T13:30:56.712Z,8.00
2023-04-04T13:31:59.156Z,8.25
2023-04-04T13:33:02.222Z,7.68
2023-04-04T13:34:04.735Z,7.63
2023-04-04T13:35:07.777Z,7.59
2023-04-04T13:36:10.610Z,7.78
2023-04-04T13:37:12.896Z,8.09
2023-04-04T13:38:16.587Z,8.06
2023-04-04T13:39:19.716Z,7.73
2023-04-04T13:40:25.183Z,7.92
2023-04-04T13:41:28.144Z,8.10
2023-04-04T13:42:31.618Z,8.69
2023-04-04T13:43:34.088Z,9.06
2023-04-04T13:44:36.357Z,9.43
2023-04-04T13:45:38.928Z,8.95
2023-04-04T13:46:42.422Z,8.79
2023-04-04T13:47:45.477Z,8.80
2023-04-04T13:48:47.658Z,8.50
2023-04-04T13:49:49.806Z,8.58
2023-04-04T13:50:53.006Z,9.07
2023-04-04T13:51:55.594Z,9.22
2023-04-04T13:52:57.929Z,8.53
2023-04-04T13:54:00.223Z,8.58
2023-04-04T13:55:05.140Z,8.54
2023-04-04T13:57:12.607Z,8.89
2023-04-04T13:58:19.929Z,9.35
2023-04-04T13:59:22.247Z,9.23
2023-04-04T14:00:25.661Z,9.03
2023-04-04T14:01:27.963Z,9.46
2023-04-04T14:02:30.411Z,9.57
2023-04-04T14:03:33.035Z,9.58
2023-04-04T14:04:35.871Z,9.25
2023-04-04T14:05:38.364Z,8.49
2023-04-04T14:06:40.702Z,8.40
2023-04-04T14:07:43.226Z,8.19
2023-04-04T14:08:46.558Z,8.21
2023-04-04T14:09:49.533Z,8.43
2023-04-04T14:10:52.108Z,8.43
2023-04-04T14:11:54.348Z,7.98
2023-04-04T14:12:56.481Z,8.23
2023-04-04T14:13:58.679Z,8.00
2023-04-04T14:15:01.088Z,8.22
2023-04-04T14:16:03.515Z,8.52
2023-04-04T14:17:05.767Z,8.87
2023-04-04T14:18:07.997Z,9.44